createdAt,value
2022-11-25T00:00:04.160Z,32.65
2022-11-25T00:02:30.578Z,21.58
2022-11-25T00:04:56.988Z,22.52
2022-11-25T00:07:23.369Z,20.88
2022-11-25T00:09:49.706Z,20.52
2022-11-25T00:14:47.826Z,20.73
2022-11-25T00:17:14.222Z,20.20
2022-11-25T00:19:40.547Z,19.85
2022-11-25T00:22:08.725Z,21.15
2022-11-25T00:24:35.332Z,20.75
2022-11-25T00:27:05.014Z,20.12
2022-11-25T00:29:31.326Z,20.02
2022-11-25T00:31:57.799Z,17.73
2022-11-25T00:34:24.138Z,19.83
2022-11-25T00:36:50.622Z,19.70
2022-11-25T00:39:16.959Z,19.50
2022-11-25T00:42:02.134Z,20.33
2022-11-25T00:44:38.581Z,22.27
2022-11-25T00:47:05.456Z,22.87
2022-11-25T00:49:31.759Z,22.33
2022-11-25T00:51:58.095Z,19.48
2022-11-25T00:54:24.454Z,19.77
2022-11-25T00:56:50.863Z,18.95
2022-11-25T00:59:17.227Z,19.33
2022-11-25T01:01:43.583Z,20.67
2022-11-25T01:04:09.937Z,19.12
2022-11-25T01:06:39.734Z,19.33
2022-11-25T01:09:06.063Z,19.75
2022-11-25T01:11:32.424Z,19.77
2022-11-25T01:14:01.368Z,18.62
2022-11-25T01:16:31.768Z,19.27
2022-11-25T01:18:58.156Z,18.92
2022-11-25T01:21:24.508Z,17.48
2022-11-25T01:23:50.896Z,18.25
2022-11-25T01:26:17.230Z,16.60
2022-11-25T01:28:46.823Z,17.75
2022-11-25T01:31:14.392Z,16.58
2022-11-25T01:33:40.768Z,17.02
2022-11-25T01:36:07.398Z,17.60
2022-11-25T01:38:33.714Z,17.40
2022-11-25T01:41:00.025Z,17.80
2022-11-25T01:43:26.627Z,16.77
2022-11-25T01:45:52.971Z,18.15
2022-11-25T01:48:19.349Z,17.58
2022-11-25T01:50:45.671Z,17.87
2022-11-25T01:53:12.106Z,16.87
2022-11-25T01:55:38.455Z,17.02
2022-11-25T01:58:04.781Z,17.02
2022-11-25T02:00:32.738Z,16.92
2022-11-25T02:02:59.189Z,16.62
2022-11-25T02:05:28.450Z,18.83
2022-11-25T02:07:58.837Z,19.33
2022-11-25T02:10:25.243Z,19.15
2022-11-25T02:12:51.674Z,20.45
2022-11-25T02:15:18.048Z,18.92
2022-11-25T02:17:44.384Z,17.65
2022-11-25T02:20:10.749Z,18.62
2022-11-25T02:22:37.138Z,17.70
2022-11-25T02:25:03.611Z,17.20
2022-11-25T02:27:29.945Z,17.92
2022-11-25T02:29:56.273Z,16.65
2022-11-25T02:32:23.514Z,17.00
2022-11-25T02:34:49.825Z,17.12
2022-11-25T02:37:16.131Z,16.25
2022-11-25T02:39:42.446Z,16.83
2022-11-25T02:42:08.758Z,16.48
2022-11-25T02:44:35.388Z,16.60
2022-11-25T02:47:01.946Z,15.80
2022-11-25T02:49:28.364Z,16.12
2022-11-25T02:51:54.679Z,15.60
2022-11-25T02:54:21.020Z,16.12
2022-11-25T02:56:47.338Z,15.75
2022-11-25T02:59:13.675Z,15.70
2022-11-25T03:01:40.047Z,16.02
2022-11-25T03:04:06.655Z,15.75
2022-11-25T03:06:33.025Z,14.90
2022-11-25T03:08:59.386Z,15.98
2022-11-25T03:11:45.732Z,15.35
2022-11-25T03:14:12.047Z,14.02
2022-11-25T03:16:38.419Z,14.27
2022-11-25T03:19:04.770Z,14.98
2022-11-25T03:21:31.082Z,15.50
2022-11-25T03:23:57.383Z,15.13
2022-11-25T03:26:26.100Z,13.90
2022-11-25T03:28:52.428Z,15.85
2022-11-25T03:31:18.804Z,15.20
2022-11-25T03:33:45.154Z,14.75
2022-11-25T03:36:11.540Z,13.77
2022-11-25T03:38:37.929Z,14.77
2022-11-25T03:41:04.313Z,14.50
2022-11-25T03:43:30.666Z,13.07
2022-11-25T03:45:57.195Z,14.43
2022-11-25T03:48:23.571Z,14.73
2022-11-25T03:50:51.651Z,14.55
2022-11-25T03:53:17.983Z,14.70
2022-11-25T03:55:44.312Z,13.50
2022-11-25T03:58:10.619Z,14.93
2022-11-25T04:00:36.951Z,13.70
2022-11-25T04:03:03.256Z,15.07
2022-11-25T04:05:29.619Z,14.57
2022-11-25T04:07:58.119Z,13.43
2022-11-25T04:10:24.659Z,13.52
2022-11-25T04:12:52.575Z,14.05
2022-11-25T04:15:18.890Z,14.30
2022-11-25T04:17:45.257Z,13.25
2022-11-25T04:20:11.572Z,14.25
2022-11-25T04:22:38.131Z,13.45
2022-11-25T04:25:04.467Z,14.15
2022-11-25T04:27:30.880Z,14.40
2022-11-25T04:29:57.181Z,14.30
2022-11-25T04:32:23.672Z,13.85
2022-11-25T04:34:50.032Z,13.55
2022-11-25T04:37:16.335Z,14.75
2022-11-25T04:39:42.790Z,14.10
2022-11-25T04:42:27.893Z,14.57
2022-11-25T04:45:20.880Z,13.95
2022-11-25T04:47:42.020Z,14.07
2022-11-25T04:50:08.406Z,13.73
2022-11-25T04:52:35.341Z,14.07
2022-11-25T04:55:01.649Z,15.18
2022-11-25T04:57:28.039Z,14.27
2022-11-25T04:59:54.354Z,14.68
2022-11-25T05:02:20.742Z,14.25
2022-11-25T05:04:47.195Z,13.62
2022-11-25T05:07:13.586Z,15.07
2022-11-25T05:09:39.979Z,13.48
2022-11-25T05:12:06.305Z,13.95
2022-11-25T05:14:32.812Z,12.35
2022-11-25T05:16:59.280Z,12.75
2022-11-25T05:19:25.622Z,13.25
2022-11-25T05:21:51.957Z,13.27
2022-11-25T05:24:18.378Z,12.57
2022-11-25T05:26:44.696Z,13.35
2022-11-25T05:29:11.010Z,13.60
2022-11-25T05:31:37.529Z,14.13
2022-11-25T05:34:03.848Z,15.25
2022-11-25T05:36:30.176Z,14.77
2022-11-25T05:38:56.488Z,13.70
2022-11-25T05:41:22.809Z,13.15
2022-11-25T05:43:49.133Z,12.85
2022-11-25T05:46:15.603Z,12.05
2022-11-25T05:48:41.986Z,12.02
2022-11-25T05:51:09.282Z,12.25
2022-11-25T05:53:35.685Z,12.45
2022-11-25T05:56:02.003Z,12.45
2022-11-25T05:58:28.460Z,11.80
2022-11-25T06:00:55.039Z,13.10
2022-11-25T06:03:21.503Z,12.25
2022-11-25T06:05:47.894Z,12.68
2022-11-25T06:08:14.204Z,13.35
2022-11-25T06:10:43.575Z,12.37
2022-11-25T06:13:09.909Z,13.23
2022-11-25T06:15:36.342Z,13.23
2022-11-25T06:18:02.717Z,13.85
2022-11-25T06:20:29.089Z,13.45
2022-11-25T06:22:55.453Z,12.32
2022-11-25T06:25:22.917Z,14.07
2022-11-25T06:28:12.344Z,12.57
2022-11-25T06:30:35.547Z,13.07
2022-11-25T06:33:01.872Z,12.52
2022-11-25T06:35:28.277Z,12.80
2022-11-25T06:37:54.624Z,13.45
2022-11-25T06:40:21.040Z,12.90
2022-11-25T06:42:47.370Z,13.40
2022-11-25T06:45:13.746Z,14.27
2022-11-25T06:47:40.075Z,14.32
2022-11-25T06:50:06.394Z,14.13
2022-11-25T06:52:32.772Z,13.70
2022-11-25T06:54:59.106Z,13.52
2022-11-25T06:57:28.619Z,14.95
2022-11-25T06:59:54.939Z,14.77
2022-11-25T07:02:21.328Z,14.15
2022-11-25T07:04:47.720Z,14.57
2022-11-25T07:07:14.054Z,15.88
2022-11-25T07:09:40.403Z,14.93
2022-11-25T07:12:06.736Z,14.40
2022-11-25T07:14:33.134Z,14.95
2022-11-25T07:16:59.502Z,14.75
2022-11-25T07:19:25.889Z,14.25
2022-11-25T07:21:52.293Z,14.52
2022-11-25T07:24:18.720Z,15.93
2022-11-25T07:26:45.047Z,16.00
2022-11-25T07:29:36.372Z,15.18
2022-11-25T07:31:57.830Z,15.13
2022-11-25T07:34:25.756Z,15.57
2022-11-25T07:36:52.115Z,15.93
2022-11-25T07:39:18.735Z,14.98
2022-11-25T07:41:45.083Z,15.57
2022-11-25T07:44:11.421Z,14.35
2022-11-25T07:46:37.933Z,15.48
2022-11-25T07:49:04.345Z,16.67
2022-11-25T07:51:30.710Z,15.75
2022-11-25T07:53:57.135Z,14.93
2022-11-25T07:56:23.492Z,15.55
2022-11-25T07:58:49.846Z,17.08
2022-11-25T08:03:47.650Z,16.27
2022-11-25T08:06:13.968Z,16.50
2022-11-25T08:08:43.575Z,15.95
2022-11-25T08:11:10.235Z,15.50
2022-11-25T08:13:36.583Z,16.45
2022-11-25T08:16:02.937Z,15.98
2022-11-25T08:18:29.352Z,15.68
2022-11-25T08:20:55.724Z,15.80
2022-11-25T08:23:22.035Z,15.30
2022-11-25T08:25:50.574Z,15.18
2022-11-25T08:28:17.160Z,14.57
2022-11-25T08:30:43.469Z,15.10
2022-11-25T08:33:09.893Z,14.50
2022-11-25T08:35:38.105Z,15.35
2022-11-25T08:38:04.499Z,14.45
2022-11-25T08:40:30.815Z,13.70
2022-11-25T08:42:57.156Z,14.57
2022-11-25T08:45:23.483Z,14.27
2022-11-25T08:47:49.970Z,13.48
2022-11-25T08:50:16.324Z,14.15
2022-11-25T08:52:43.015Z,14.75
2022-11-25T08:55:09.333Z,14.23
2022-11-25T08:57:35.700Z,14.38
2022-11-25T09:00:02.013Z,14.15
2022-11-25T09:02:28.478Z,14.13
2022-11-25T09:04:54.854Z,15.75
2022-11-25T09:07:24.832Z,14.57
2022-11-25T09:09:53.967Z,15.40
2022-11-25T09:12:23.537Z,14.25
2022-11-25T09:14:49.853Z,14.73
2022-11-25T09:17:16.605Z,14.35
2022-11-25T09:19:42.927Z,13.93
2022-11-25T09:22:09.235Z,13.80
2022-11-25T09:24:35.768Z,14.57
2022-11-25T09:27:02.196Z,13.98
2022-11-25T09:29:30.253Z,13.40
2022-11-25T09:31:56.587Z,13.60
2022-11-25T09:34:22.962Z,12.70
2022-11-25T09:36:49.286Z,13.32
2022-11-25T09:39:15.612Z,13.07
2022-11-25T09:42:00.859Z,12.73
2022-11-25T09:44:45.815Z,12.40
2022-11-25T09:47:13.178Z,12.23
2022-11-25T09:49:39.746Z,12.05
2022-11-25T09:52:06.168Z,12.30
2022-11-25T09:54:32.485Z,12.07
2022-11-25T09:56:58.796Z,12.65
2022-11-25T09:59:25.145Z,12.37
2022-11-25T10:01:51.514Z,11.18
2022-11-25T10:04:19.572Z,11.45
2022-11-25T10:06:49.441Z,11.02
2022-11-25T10:09:18.422Z,10.73
2022-11-25T10:11:44.743Z,11.25
2022-11-25T10:14:11.083Z,10.32
2022-11-25T10:16:37.648Z,10.32
2022-11-25T10:19:04.041Z,11.05
2022-11-25T10:21:30.393Z,9.70
2022-11-25T10:23:56.885Z,11.20
2022-11-25T10:26:23.253Z,10.82
2022-11-25T10:28:49.625Z,10.13
2022-11-25T10:31:16.066Z,9.90
2022-11-25T10:33:42.480Z,10.20
2022-11-25T10:36:08.793Z,9.30
2022-11-25T10:38:36.530Z,10.85
2022-11-25T10:41:02.882Z,9.75
2022-11-25T10:43:31.874Z,9.68
2022-11-25T10:45:59.022Z,10.15
2022-11-25T10:48:25.389Z,9.63
2022-11-25T10:50:51.955Z,9.98
2022-11-25T10:53:18.280Z,9.05
2022-11-25T10:55:44.591Z,8.85
2022-11-25T10:58:10.967Z,9.70
2022-11-25T11:00:37.291Z,9.10
2022-11-25T11:03:03.688Z,9.10
2022-11-25T11:05:30.390Z,8.45
2022-11-25T11:07:56.940Z,8.82
2022-11-25T11:10:23.395Z,9.25
2022-11-25T11:12:49.747Z,9.75
2022-11-25T11:15:16.131Z,9.43
2022-11-25T11:17:42.506Z,9.50
2022-11-25T11:20:08.852Z,10.90
2022-11-25T11:22:35.515Z,9.93
2022-11-25T11:25:01.852Z,8.95
2022-11-25T11:27:28.170Z,10.27
2022-11-25T11:29:56.528Z,10.70
2022-11-25T11:32:22.855Z,9.35
2022-11-25T11:34:49.206Z,9.45
2022-11-25T11:37:15.549Z,10.23
2022-11-25T11:39:41.885Z,9.13
2022-11-25T11:42:08.473Z,9.50
2022-11-25T11:44:35.118Z,9.23
2022-11-25T11:47:01.860Z,9.38
2022-11-25T11:49:30.781Z,9.00
2022-11-25T11:51:57.315Z,10.00
2022-11-25T11:54:23.646Z,9.55
2022-11-25T11:56:55.070Z,9.13
2022-11-25T11:59:21.871Z,8.48
2022-11-25T12:01:48.320Z,9.70
2022-11-25T12:04:16.527Z,9.80
2022-11-25T12:06:42.909Z,9.55
2022-11-25T12:09:09.238Z,8.57
2022-11-25T12:11:35.862Z,8.85
2022-11-25T12:14:02.187Z,9.50
2022-11-25T12:16:28.593Z,8.88
2022-11-25T12:18:56.474Z,8.95
2022-11-25T12:21:22.775Z,9.60
2022-11-25T12:23:49.252Z,9.32
2022-11-25T12:26:15.579Z,9.50
2022-11-25T12:28:41.963Z,9.43
2022-11-25T12:31:08.351Z,9.32
2022-11-25T12:33:34.806Z,8.95
2022-11-25T12:36:01.182Z,9.15
2022-11-25T12:38:27.503Z,9.27
2022-11-25T12:40:54.488Z,8.60
2022-11-25T12:43:20.795Z,9.32
2022-11-25T12:45:47.482Z,9.57
2022-11-25T12:48:18.569Z,9.13
2022-11-25T12:50:47.666Z,9.38
2022-11-25T12:53:14.015Z,10.13
2022-11-25T12:55:40.356Z,10.10
2022-11-25T12:58:06.694Z,10.10
2022-11-25T13:00:41.493Z,10.73
2022-11-25T13:03:13.721Z,10.63
2022-11-25T13:05:41.156Z,10.20
2022-11-25T13:08:07.667Z,9.68
2022-11-25T13:10:34.026Z,8.93
2022-11-25T13:13:00.696Z,8.50
2022-11-25T13:15:27.642Z,9.15
2022-11-25T13:17:54.371Z,9.07
2022-11-25T13:20:20.769Z,9.15
2022-11-25T13:22:47.151Z,8.93
2022-11-25T13:25:13.466Z,8.13
2022-11-25T13:27:43.059Z,9.75
2022-11-25T13:30:09.603Z,9.65
2022-11-25T13:32:36.010Z,9.63
2022-11-25T13:35:02.397Z,7.97
2022-11-25T13:37:33.540Z,8.27
2022-11-25T13:40:02.490Z,9.00
2022-11-25T13:42:28.820Z,8.68
2022-11-25T13:44:55.210Z,9.30
2022-11-25T13:47:21.670Z,9.27
2022-11-25T13:49:47.982Z,8.68
2022-11-25T13:52:14.328Z,9.15
2022-11-25T13:54:40.633Z,9.50
2022-11-25T13:57:06.962Z,9.50
2022-11-25T13:59:33.357Z,9.20
2022-11-25T14:01:59.928Z,9.77
2022-11-25T14:04:26.288Z,9.98
2022-11-25T14:06:53.433Z,9.57
2022-11-25T14:09:19.937Z,9.68
2022-11-25T14:11:46.298Z,9.85
2022-11-25T14:14:12.708Z,9.43
2022-11-25T14:16:39.139Z,9.80
2022-11-25T14:19:43.323Z,10.57
2022-11-25T14:21:51.833Z,11.20
2022-11-25T14:24:18.186Z,10.48
2022-11-25T14:26:50.387Z,11.73
2022-11-25T14:29:17.028Z,11.05
2022-11-25T14:31:44.463Z,11.50
2022-11-25T14:34:10.823Z,11.23
2022-11-25T14:36:37.462Z,11.98
2022-11-25T14:39:04.739Z,11.20
2022-11-25T14:41:31.601Z,11.98
2022-11-25T14:43:58.039Z,12.30
2022-11-25T14:46:25.737Z,12.57
2022-11-25T14:48:52.102Z,12.45
2022-11-25T14:51:18.788Z,13.27
2022-11-25T14:53:48.097Z,12.93
2022-11-25T14:56:14.964Z,12.57
2022-11-25T14:58:41.392Z,13.00
2022-11-25T15:01:07.765Z,13.70
2022-11-25T15:03:34.111Z,15.15
2022-11-25T15:06:00.470Z,18.00
2022-11-25T15:08:27.517Z,15.18
2022-11-25T15:10:53.923Z,14.00
2022-11-25T15:13:20.266Z,15.77
2022-11-25T15:15:46.662Z,14.07
2022-11-25T15:18:12.998Z,14.77
2022-11-25T15:20:39.296Z,15.95
2022-11-25T15:23:05.659Z,16.02
2022-11-25T15:25:32.033Z,16.25
2022-11-25T15:27:58.614Z,18.25
2022-11-25T15:30:24.964Z,16.83
2022-11-25T15:32:51.307Z,15.10
2022-11-25T15:35:17.642Z,15.90
2022-11-25T15:37:44.095Z,17.02
2022-11-25T15:40:10.434Z,16.83
2022-11-25T15:42:36.747Z,16.37
2022-11-25T15:45:07.002Z,16.92
2022-11-25T15:47:34.977Z,16.40
2022-11-25T15:50:01.987Z,15.52
2022-11-25T15:52:28.319Z,15.57
2022-11-25T15:54:54.669Z,15.75
2022-11-25T15:57:20.979Z,15.95
2022-11-25T15:59:47.695Z,17.17
2022-11-25T16:02:14.070Z,15.80
2022-11-25T16:04:40.403Z,16.15
2022-11-25T16:07:06.763Z,16.05
2022-11-25T16:09:33.113Z,19.15
2022-11-25T16:11:59.425Z,14.93
2022-11-25T16:14:28.893Z,17.10
2022-11-25T16:16:55.286Z,15.73
2022-11-25T16:19:21.750Z,15.80
2022-11-25T16:21:48.227Z,16.42
2022-11-25T16:24:14.571Z,16.12
2022-11-25T16:26:40.906Z,14.93
2022-11-25T16:29:07.273Z,15.30
2022-11-25T16:31:33.652Z,15.98
2022-11-25T16:34:00.271Z,16.08
2022-11-25T16:36:26.586Z,16.90
2022-11-25T16:38:53.569Z,16.55
2022-11-25T16:41:20.183Z,17.10
2022-11-25T16:43:46.527Z,17.15
2022-11-25T16:46:12.919Z,18.23
2022-11-25T16:48:39.381Z,17.23
2022-11-25T16:51:05.711Z,17.35
2022-11-25T16:53:32.009Z,16.45
2022-11-25T16:55:58.389Z,15.88
2022-11-25T16:58:24.736Z,20.27
2022-11-25T17:00:51.460Z,19.62
2022-11-25T17:03:18.341Z,22.80
2022-11-25T17:05:45.819Z,29.45
2022-11-25T17:08:12.191Z,19.80
2022-11-25T17:10:38.542Z,17.25
2022-11-25T17:13:04.878Z,19.65
2022-11-25T17:15:31.324Z,18.60
2022-11-25T17:17:57.714Z,17.42
2022-11-25T17:20:24.837Z,18.27
2022-11-25T17:22:51.169Z,18.00
2022-11-25T17:25:17.479Z,17.62
2022-11-25T17:27:44.992Z,18.83
2022-11-25T17:30:11.295Z,16.45
2022-11-25T17:32:37.661Z,17.87
2022-11-25T17:35:04.078Z,18.12
2022-11-25T17:37:31.239Z,17.52
2022-11-25T17:39:57.655Z,17.67
2022-11-25T17:42:24.011Z,21.73
2022-11-25T17:44:54.156Z,19.02
2022-11-25T17:47:20.871Z,24.60
2022-11-25T17:49:48.318Z,18.77
2022-11-25T17:52:14.633Z,18.67
2022-11-25T17:54:41.151Z,18.92
2022-11-25T17:57:07.486Z,18.75
2022-11-25T17:59:33.859Z,19.75
2022-11-25T18:02:00.492Z,17.92
2022-11-25T18:04:26.882Z,17.50
2022-11-25T18:06:53.207Z,18.58
2022-11-25T18:09:19.533Z,17.45
2022-11-25T18:11:46.894Z,17.73
2022-11-25T18:14:13.485Z,17.45
2022-11-25T18:16:41.502Z,19.83
2022-11-25T18:19:07.916Z,17.85
2022-11-25T18:21:34.245Z,17.35
2022-11-25T18:24:00.651Z,20.08
2022-11-25T18:26:27.033Z,18.17
2022-11-25T18:28:53.355Z,18.37
2022-11-25T18:31:19.704Z,18.05
2022-11-25T18:33:47.462Z,18.42
2022-11-25T18:36:14.299Z,17.55
2022-11-25T18:38:41.102Z,19.23
2022-11-25T18:41:07.435Z,17.62
2022-11-25T18:43:34.994Z,18.00
2022-11-25T18:46:01.335Z,18.55
2022-11-25T18:48:27.803Z,19.08
2022-11-25T18:50:55.046Z,19.73
2022-11-25T18:53:21.784Z,18.45
2022-11-25T18:55:48.120Z,18.60
2022-11-25T18:58:14.763Z,20.37
2022-11-25T19:00:41.119Z,20.30
2022-11-25T19:03:07.431Z,18.45
2022-11-25T19:05:33.822Z,20.88
2022-11-25T19:08:00.410Z,19.48
2022-11-25T19:10:26.831Z,19.02
2022-11-25T19:12:53.147Z,24.83
2022-11-25T19:15:19.489Z,21.62
2022-11-25T19:17:45.809Z,22.87
2022-11-25T19:20:12.122Z,22.62
2022-11-25T19:22:38.449Z,28.25
2022-11-25T19:25:05.022Z,23.90
2022-11-25T19:27:31.339Z,20.90
2022-11-25T19:29:57.740Z,23.33
2022-11-25T19:32:24.164Z,21.02
2022-11-25T19:34:50.568Z,19.65
2022-11-25T19:37:16.931Z,20.98
2022-11-25T19:39:43.310Z,26.90
2022-11-25T19:42:10.745Z,29.23
2022-11-25T19:44:37.347Z,21.58
2022-11-25T19:47:19.224Z,35.45
2022-11-25T19:49:45.612Z,27.13
2022-11-25T19:52:11.947Z,27.92
2022-11-25T19:54:38.655Z,28.33
2022-11-25T19:57:05.172Z,22.02
2022-11-25T19:59:31.519Z,32.92
2022-11-25T20:01:57.936Z,30.73
2022-11-25T20:04:24.278Z,28.25
2022-11-25T20:06:54.394Z,24.33
2022-11-25T20:09:20.787Z,21.65
2022-11-25T20:11:47.557Z,22.08
2022-11-25T20:14:13.907Z,23.83
2022-11-25T20:16:40.387Z,21.17
2022-11-25T20:19:07.470Z,20.75
2022-11-25T20:21:33.774Z,21.05
2022-11-25T20:24:00.088Z,20.83
2022-11-25T20:26:26.545Z,21.73
2022-11-25T20:28:52.863Z,21.60
2022-11-25T20:31:19.351Z,22.27
2022-11-25T20:33:46.123Z,22.23
2022-11-25T20:36:12.652Z,22.40
2022-11-25T20:38:38.965Z,22.45
2022-11-25T20:41:05.690Z,23.15
2022-11-25T20:43:32.128Z,21.95
2022-11-25T20:45:58.529Z,21.08
2022-11-25T20:48:24.934Z,22.73
2022-11-25T20:50:51.266Z,23.15
2022-11-25T20:53:17.602Z,21.25
2022-11-25T20:55:43.901Z,22.67
2022-11-25T20:58:10.222Z,20.95
2022-11-25T21:00:36.538Z,21.08
2022-11-25T21:03:02.881Z,21.92
2022-11-25T21:05:29.201Z,22.30
2022-11-25T21:07:55.640Z,22.17
2022-11-25T21:10:22.497Z,21.83
2022-11-25T21:12:52.358Z,23.98
2022-11-25T21:15:18.657Z,21.25
2022-11-25T21:17:45.138Z,22.85
2022-11-25T21:20:11.453Z,22.83
2022-11-25T21:22:41.218Z,21.77
2022-11-25T21:25:07.866Z,22.05
2022-11-25T21:27:34.393Z,22.40
2022-11-25T21:30:00.782Z,21.65
2022-11-25T21:32:27.321Z,22.30
2022-11-25T21:34:53.680Z,22.62
2022-11-25T21:37:20.229Z,21.20
2022-11-25T21:39:46.529Z,21.83
2022-11-25T21:42:15.461Z,21.85
2022-11-25T21:44:45.431Z,22.25
2022-11-25T21:47:11.750Z,23.25
2022-11-25T21:49:38.063Z,22.35
2022-11-25T21:52:04.395Z,23.15
2022-11-25T21:54:30.712Z,22.62
2022-11-25T21:56:58.763Z,22.85
2022-11-25T21:59:25.081Z,22.50
2022-11-25T22:01:51.497Z,23.02
2022-11-25T22:04:17.930Z,22.75
2022-11-25T22:06:44.311Z,23.23
2022-11-25T22:09:10.629Z,24.17
2022-11-25T22:11:36.993Z,24.63
2022-11-25T22:14:03.310Z,24.10
2022-11-25T22:16:29.715Z,24.87
2022-11-25T22:18:56.099Z,23.00
2022-11-25T22:21:22.634Z,25.02
2022-11-25T22:23:49.012Z,25.52
2022-11-25T22:26:15.323Z,24.00
2022-11-25T22:28:41.798Z,24.12
2022-11-25T22:31:08.471Z,23.02
2022-11-25T22:33:34.848Z,24.25
2022-11-25T22:36:01.220Z,23.87
2022-11-25T22:38:27.541Z,25.12
2022-11-25T22:40:53.865Z,22.50
2022-11-25T22:43:20.211Z,22.73
2022-11-25T22:45:46.644Z,24.58
2022-11-25T22:48:13.025Z,25.65
2022-11-25T22:50:39.374Z,26.50
2022-11-25T22:53:05.678Z,23.52
2022-11-25T22:55:31.987Z,25.40
2022-11-25T22:57:58.307Z,24.33
2022-11-25T23:00:24.673Z,24.48
2022-11-25T23:02:50.983Z,25.05
2022-11-25T23:05:17.320Z,24.05
2022-11-25T23:07:43.692Z,23.33
2022-11-25T23:10:10.028Z,22.45
2022-11-25T23:12:36.333Z,23.40
2022-11-25T23:15:02.664Z,20.62
2022-11-25T23:17:28.970Z,21.85
2022-11-25T23:19:55.317Z,19.23
2022-11-25T23:22:21.724Z,17.48
2022-11-25T23:24:48.046Z,18.80
2022-11-25T23:27:14.367Z,17.62
2022-11-25T23:29:40.714Z,15.60
2022-11-25T23:32:07.051Z,15.35
2022-11-25T23:34:33.432Z,14.52
2022-11-25T23:36:59.858Z,13.50
2022-11-25T23:39:26.184Z,13.10
2022-11-25T23:41:52.491Z,11.57
2022-11-25T23:44:18.953Z,12.37
2022-11-25T23:46:45.329Z,12.05
2022-11-25T23:49:11.635Z,12.45
2022-11-25T23:51:37.951Z,12.20
2022-11-25T23:54:04.258Z,12.60
2022-11-25T23:56:30.626Z,12.10
2022-11-25T23:58:57.038Z,12.55
